createdAt,value
2022-09-06T00:00:03.000Z,0.8
2022-09-06T00:01:13.000Z,0.8
2022-09-06T00:02:23.000Z,0.5
2022-09-06T00:03:33.000Z,0.7
2022-09-06T00:04:43.000Z,0.6
2022-09-06T00:05:54.000Z,0.8
2022-09-06T00:07:04.000Z,0.7
2022-09-06T00:08:14.000Z,0.8
2022-09-06T00:09:24.000Z,0.6
2022-09-06T00:10:34.000Z,0.6
2022-09-06T00:11:44.000Z,0.6
2022-09-06T00:12:54.000Z,0.8
2022-09-06T00:14:04.000Z,0.7
2022-09-06T00:15:13.000Z,0.8
2022-09-06T00:16:24.000Z,0.7
2022-09-06T00:17:34.000Z,0.7
2022-09-06T00:18:44.000Z,0.7
2022-09-06T00:19:54.000Z,0.8
2022-09-06T00:21:04.000Z,0.9
2022-09-06T00:22:14.000Z,0.8
2022-09-06T00:23:24.000Z,0.7
2022-09-06T00:24:34.000Z,0.8
2022-09-06T00:25:45.000Z,1
2022-09-06T00:26:55.000Z,0.8
2022-09-06T00:28:05.000Z,0.8
2022-09-06T00:29:15.000Z,0.8
2022-09-06T00:30:24.000Z,1.2
2022-09-06T00:31:34.000Z,0.9
2022-09-06T00:32:44.000Z,1
2022-09-06T00:33:54.000Z,1
2022-09-06T00:35:04.000Z,1
2022-09-06T00:36:15.000Z,1
2022-09-06T00:37:25.000Z,0.9
2022-09-06T00:38:35.000Z,1.5
2022-09-06T00:39:45.000Z,0.8
2022-09-06T00:40:55.000Z,1.2
2022-09-06T00:42:05.000Z,1.2
2022-09-06T00:43:15.000Z,1.2
2022-09-06T00:44:25.000Z,1.3
2022-09-06T00:45:35.000Z,1.1
2022-09-06T00:46:45.000Z,1
2022-09-06T00:47:55.000Z,1
2022-09-06T00:49:05.000Z,1.2
2022-09-06T00:51:25.000Z,1.2
2022-09-06T00:52:34.000Z,1
2022-09-06T00:53:44.000Z,1.7
2022-09-06T00:54:54.000Z,1.2
2022-09-06T00:56:05.000Z,1.2
2022-09-06T00:57:15.000Z,1.3
2022-09-06T00:58:25.000Z,1.1
2022-09-06T00:59:35.000Z,1.4
2022-09-06T01:00:45.000Z,1.2
2022-09-06T01:01:55.000Z,1.1
2022-09-06T01:03:05.000Z,0.9
2022-09-06T01:04:15.000Z,1.2
2022-09-06T01:05:26.000Z,1.1
2022-09-06T01:06:36.000Z,1.7
2022-09-06T01:07:45.000Z,1.3
2022-09-06T01:08:55.000Z,1.3
2022-09-06T01:10:05.000Z,1.7
2022-09-06T01:11:15.000Z,1.4
2022-09-06T01:12:25.000Z,1
2022-09-06T01:13:35.000Z,1
2022-09-06T01:14:45.000Z,1.4
2022-09-06T01:15:56.000Z,1.7
2022-09-06T01:17:06.000Z,1.3
2022-09-06T01:18:16.000Z,1.4
2022-09-06T01:19:26.000Z,1.3
2022-09-06T01:20:36.000Z,1
2022-09-06T01:21:46.000Z,1.3
2022-09-06T01:22:55.000Z,1.4
2022-09-06T01:24:05.000Z,1.3
2022-09-06T01:25:16.000Z,1.3
2022-09-06T01:26:26.000Z,1.2
2022-09-06T01:27:36.000Z,1.1
2022-09-06T01:28:46.000Z,1.1
2022-09-06T01:29:56.000Z,1.3
2022-09-06T01:31:06.000Z,1.5
2022-09-06T01:32:16.000Z,1.3
2022-09-06T01:33:26.000Z,1.5
2022-09-06T01:34:36.000Z,1.4
2022-09-06T01:35:47.000Z,1.1
2022-09-06T01:38:07.000Z,1.6
2022-09-06T01:39:16.000Z,1.1
2022-09-06T01:40:26.000Z,1.4
2022-09-06T01:41:36.000Z,1.5
2022-09-06T01:42:46.000Z,1.6
2022-09-06T01:43:56.000Z,1.6
2022-09-06T01:45:07.000Z,1.6
2022-09-06T01:46:17.000Z,1.4
2022-09-06T01:47:27.000Z,1
2022-09-06T01:48:37.000Z,1.5
2022-09-06T01:49:47.000Z,1.4
2022-09-06T01:50:57.000Z,1.2
2022-09-06T01:52:07.000Z,1.6
2022-09-06T01:53:17.000Z,1.3
2022-09-06T01:54:26.000Z,1.7
2022-09-06T01:55:37.000Z,1.3
2022-09-06T01:56:47.000Z,1.5
2022-09-06T01:57:57.000Z,1.2
2022-09-06T01:59:07.000Z,1.5
2022-09-06T02:00:17.000Z,1.6
2022-09-06T02:01:27.000Z,1.4
2022-09-06T02:02:37.000Z,1.5
2022-09-06T02:03:47.000Z,1.3
2022-09-06T02:04:57.000Z,1.4
2022-09-06T02:06:08.000Z,1.6
2022-09-06T02:07:18.000Z,1.4
2022-09-06T02:08:28.000Z,1.5
2022-09-06T02:09:37.000Z,1.5
2022-09-06T02:10:47.000Z,1.4
2022-09-06T02:11:57.000Z,1.2
2022-09-06T02:13:07.000Z,1.2
2022-09-06T02:14:17.000Z,1.3
2022-09-06T02:15:28.000Z,1.3
2022-09-06T02:16:38.000Z,1.6
2022-09-06T02:17:48.000Z,1.2
2022-09-06T02:18:58.000Z,1.6
2022-09-06T02:20:08.000Z,1.5
2022-09-06T02:21:18.000Z,1.5
2022-09-06T02:22:28.000Z,1.8
2022-09-06T02:23:38.000Z,1.6
2022-09-06T02:24:47.000Z,1.4
2022-09-06T02:25:58.000Z,1.5
2022-09-06T02:27:08.000Z,1.6
2022-09-06T02:28:18.000Z,1.5
2022-09-06T02:29:28.000Z,1.3
2022-09-06T02:30:38.000Z,1.4
2022-09-06T02:31:48.000Z,1.8
2022-09-06T02:32:58.000Z,1.4
2022-09-06T02:34:08.000Z,1.9
2022-09-06T02:35:19.000Z,1.4
2022-09-06T02:36:29.000Z,1.4
2022-09-06T02:37:39.000Z,1.4
2022-09-06T02:38:49.000Z,1.7
2022-09-06T02:39:58.000Z,1.4
2022-09-06T02:41:08.000Z,1.5
2022-09-06T02:42:18.000Z,1.7
2022-09-06T02:43:28.000Z,1.5
2022-09-06T02:44:38.000Z,1.6
2022-09-06T02:45:49.000Z,1.2
2022-09-06T02:46:59.000Z,1.5
2022-09-06T02:48:09.000Z,1.5
2022-09-06T02:49:19.000Z,1.6
2022-09-06T02:50:29.000Z,1.6
2022-09-06T02:51:39.000Z,1.1
2022-09-06T02:52:49.000Z,1.4
2022-09-06T02:53:59.000Z,1.7
2022-09-06T02:55:09.000Z,1.6
2022-09-06T02:56:19.000Z,1.7
2022-09-06T02:57:29.000Z,1.3
2022-09-06T02:58:39.000Z,1.4
2022-09-06T03:00:59.000Z,1.4
2022-09-06T03:02:09.000Z,1.3
2022-09-06T03:03:19.000Z,1.7
2022-09-06T03:04:29.000Z,1.6
2022-09-06T03:05:40.000Z,1.3
2022-09-06T03:06:50.000Z,1.4
2022-09-06T03:08:00.000Z,1.7
2022-09-06T03:09:10.000Z,1.8
2022-09-06T03:10:19.000Z,1.4
2022-09-06T03:11:29.000Z,1.5
2022-09-06T03:12:39.000Z,1.5
2022-09-06T03:13:49.000Z,1.4
2022-09-06T03:15:00.000Z,1.7
2022-09-06T03:16:10.000Z,1.7
2022-09-06T03:18:30.000Z,1.5
2022-09-06T03:19:40.000Z,1.4
2022-09-06T03:20:50.000Z,1.7
2022-09-06T03:22:00.000Z,1.7
2022-09-06T03:23:10.000Z,1.5
2022-09-06T03:24:20.000Z,1.5
2022-09-06T03:25:30.000Z,1.3
2022-09-06T03:26:40.000Z,1.6
2022-09-06T03:27:50.000Z,1.6
2022-09-06T03:29:00.000Z,1.5
2022-09-06T03:30:10.000Z,1.4
2022-09-06T03:31:20.000Z,1.5
2022-09-06T03:32:30.000Z,1.4
2022-09-06T03:33:40.000Z,1.8
2022-09-06T03:34:51.000Z,1.6
2022-09-06T03:36:01.000Z,1.7
2022-09-06T03:37:11.000Z,1.6
2022-09-06T03:38:21.000Z,1.4
2022-09-06T03:39:31.000Z,1.5
2022-09-06T03:40:40.000Z,2
2022-09-06T03:41:50.000Z,1.7
2022-09-06T03:43:00.000Z,1.4
2022-09-06T03:44:10.000Z,1.9
2022-09-06T03:45:21.000Z,1.4
2022-09-06T03:46:31.000Z,1.7
2022-09-06T03:47:41.000Z,1.3
2022-09-06T03:48:51.000Z,1.7
2022-09-06T03:50:01.000Z,1.5
2022-09-06T03:51:11.000Z,1.3
2022-09-06T03:52:21.000Z,1.4
2022-09-06T03:53:31.000Z,1.7
2022-09-06T03:54:42.000Z,1.9
2022-09-06T03:55:51.000Z,1.4
2022-09-06T03:57:01.000Z,1.4
2022-09-06T03:58:11.000Z,1.6
2022-09-06T03:59:21.000Z,1.5
2022-09-06T04:00:31.000Z,1.5
2022-09-06T04:01:41.000Z,1.2
2022-09-06T04:02:51.000Z,1.5
2022-09-06T04:04:01.000Z,1.5
2022-09-06T04:05:12.000Z,1.7
2022-09-06T04:06:22.000Z,1.9
2022-09-06T04:07:32.000Z,1.5
2022-09-06T04:08:42.000Z,1.6
2022-09-06T04:09:52.000Z,1.8
2022-09-06T04:11:01.000Z,1.5
2022-09-06T04:12:11.000Z,1.2
2022-09-06T04:13:21.000Z,1.5
2022-09-06T04:14:32.000Z,1.5
2022-09-06T04:15:42.000Z,1.4
2022-09-06T04:16:52.000Z,1.2
2022-09-06T04:18:02.000Z,1.7
2022-09-06T04:19:12.000Z,1.5
2022-09-06T04:20:22.000Z,1.2
2022-09-06T04:21:32.000Z,1.5
2022-09-06T04:22:42.000Z,1.6
2022-09-06T04:23:52.000Z,1.4
2022-09-06T04:25:03.000Z,1.6
2022-09-06T04:26:12.000Z,1.5
2022-09-06T04:27:22.000Z,1.6
2022-09-06T04:28:32.000Z,1.6
2022-09-06T04:29:42.000Z,1.3
2022-09-06T04:30:52.000Z,1.8
2022-09-06T04:32:02.000Z,1.3
2022-09-06T04:33:12.000Z,1.4
2022-09-06T04:34:22.000Z,1.6
2022-09-06T04:35:33.000Z,1.5
2022-09-06T04:36:43.000Z,1.4
2022-09-06T04:37:53.000Z,1.4
2022-09-06T04:39:03.000Z,1.3
2022-09-06T04:40:13.000Z,1.4
2022-09-06T04:41:22.000Z,1.5
2022-09-06T04:42:32.000Z,1.4
2022-09-06T04:43:42.000Z,1.4
2022-09-06T04:44:53.000Z,1.3
2022-09-06T04:46:03.000Z,1.3
2022-09-06T04:47:12.000Z,1.4
2022-09-06T04:48:22.000Z,1.5
2022-09-06T04:49:32.000Z,1.3
2022-09-06T04:50:42.000Z,1.2
2022-09-06T04:51:52.000Z,1.1
2022-09-06T04:53:02.000Z,1.5
2022-09-06T04:54:13.000Z,1.1
2022-09-06T04:55:23.000Z,1.5
2022-09-06T04:56:33.000Z,1.3
2022-09-06T04:57:43.000Z,1.4
2022-09-06T04:58:53.000Z,1.6
2022-09-06T05:00:03.000Z,1.2
2022-09-06T05:01:13.000Z,1.9
2022-09-06T05:02:22.000Z,1.4
2022-09-06T05:03:32.000Z,1.7
2022-09-06T05:04:43.000Z,1.3
2022-09-06T05:05:53.000Z,1.8
2022-09-06T05:08:13.000Z,1.2
2022-09-06T05:09:23.000Z,1.7
2022-09-06T05:10:33.000Z,1.3
2022-09-06T05:11:43.000Z,1.4
2022-09-06T05:12:53.000Z,1.7
2022-09-06T05:14:04.000Z,2
2022-09-06T05:15:14.000Z,1.5
2022-09-06T05:18:44.000Z,1.3
2022-09-06T05:19:53.000Z,1.2
2022-09-06T05:21:02.000Z,2
2022-09-06T05:23:22.000Z,1.8
2022-09-06T05:24:31.000Z,1.5
2022-09-06T05:25:40.000Z,1.5
2022-09-06T05:26:50.000Z,1.8
2022-09-06T05:28:00.000Z,1.7
2022-09-06T05:31:30.000Z,1.2
2022-09-06T05:32:40.000Z,1.8
2022-09-06T05:33:49.000Z,1.5
2022-09-06T05:34:59.000Z,1.6
2022-09-06T05:36:09.000Z,1.7
2022-09-06T05:37:19.000Z,1.6
2022-09-06T05:38:29.000Z,1.4
2022-09-06T05:39:39.000Z,1.5
2022-09-06T05:42:00.000Z,1.9
2022-09-06T05:43:10.000Z,1.6
2022-09-06T05:45:30.000Z,1.4
2022-09-06T05:46:40.000Z,1.4
2022-09-06T05:47:49.000Z,1.8
2022-09-06T05:48:59.000Z,1.8
2022-09-06T05:50:08.000Z,1.3
2022-09-06T05:51:18.000Z,1.9
2022-09-06T05:52:29.000Z,1.6
2022-09-06T05:53:39.000Z,1.7
2022-09-06T05:54:49.000Z,1.9
2022-09-06T05:55:59.000Z,1.9
2022-09-06T05:57:09.000Z,2.1
2022-09-06T05:58:19.000Z,1.5
2022-09-06T05:59:29.000Z,1.9
2022-09-06T06:00:38.000Z,1.7
2022-09-06T06:01:48.000Z,1.4
2022-09-06T06:02:58.000Z,1.5
2022-09-06T06:04:08.000Z,1.8
2022-09-06T06:05:18.000Z,1.4
2022-09-06T06:06:28.000Z,1.5
2022-09-06T06:07:38.000Z,1.9
2022-09-06T06:08:48.000Z,1.7
2022-09-06T06:09:58.000Z,1.9
2022-09-06T06:11:08.000Z,1.5
2022-09-06T06:12:19.000Z,1.5
2022-09-06T06:13:28.000Z,1.9
2022-09-06T06:14:37.000Z,1.6
2022-09-06T06:16:57.000Z,1.3
2022-09-06T06:18:07.000Z,1.5
2022-09-06T06:19:17.000Z,1.5
2022-09-06T06:20:27.000Z,1.5
2022-09-06T06:21:38.000Z,1.3
2022-09-06T06:22:48.000Z,1.5
2022-09-06T06:23:58.000Z,1.5
2022-09-06T06:25:08.000Z,1.8
2022-09-06T06:26:18.000Z,1.2
2022-09-06T06:28:38.000Z,1.5
2022-09-06T06:29:47.000Z,1.3
2022-09-06T06:30:57.000Z,1.7
2022-09-06T06:32:07.000Z,1.7
2022-09-06T06:33:17.000Z,1.3
2022-09-06T06:35:37.000Z,1.2
2022-09-06T06:36:47.000Z,1.7
2022-09-06T06:37:57.000Z,1.5
2022-09-06T06:39:07.000Z,1.5
2022-09-06T06:40:17.000Z,1.4
2022-09-06T06:41:28.000Z,1.7
2022-09-06T06:42:38.000Z,1.7
2022-09-06T06:43:48.000Z,1.1
2022-09-06T06:44:58.000Z,1.9
2022-09-06T06:46:07.000Z,1.4
2022-09-06T06:47:17.000Z,1.9
2022-09-06T06:48:27.000Z,1.5
2022-09-06T06:49:37.000Z,1.4
2022-09-06T06:50:48.000Z,1.6
2022-09-06T06:51:58.000Z,1.7
2022-09-06T06:53:08.000Z,1.8
2022-09-06T06:54:18.000Z,1.6
2022-09-06T06:55:27.000Z,1.6
2022-09-06T06:56:36.000Z,1.4
2022-09-06T06:57:46.000Z,1.7
2022-09-06T06:58:56.000Z,1.8
2022-09-06T07:00:06.000Z,1.9
2022-09-06T07:01:15.000Z,2
2022-09-06T07:02:25.000Z,1.9
2022-09-06T07:03:35.000Z,2
2022-09-06T07:04:45.000Z,1.7
2022-09-06T07:05:55.000Z,1.7
2022-09-06T07:07:05.000Z,2
2022-09-06T07:08:15.000Z,1.7
2022-09-06T07:09:25.000Z,1.5
2022-09-06T07:10:36.000Z,2
2022-09-06T07:11:46.000Z,2.3
2022-09-06T07:12:56.000Z,1.5
2022-09-06T07:14:06.000Z,1.7
2022-09-06T07:15:16.000Z,1.7
2022-09-06T07:16:25.000Z,1.7
2022-09-06T07:17:35.000Z,1.6
2022-09-06T07:18:45.000Z,1.8
2022-09-06T07:19:56.000Z,2.1
2022-09-06T07:21:06.000Z,1.9
2022-09-06T07:22:16.000Z,1.8
2022-09-06T07:23:26.000Z,1.7
2022-09-06T07:24:35.000Z,1.6
2022-09-06T07:25:44.000Z,1.6
2022-09-06T07:26:54.000Z,1.7
2022-09-06T07:28:04.000Z,1.8
2022-09-06T07:29:15.000Z,1.9
2022-09-06T07:30:25.000Z,1.6
2022-09-06T07:31:35.000Z,1.7
2022-09-06T07:32:45.000Z,2
2022-09-06T07:33:55.000Z,1.9
2022-09-06T07:35:05.000Z,1.7
2022-09-06T07:36:15.000Z,1.6
2022-09-06T07:37:25.000Z,1.6
2022-09-06T07:38:35.000Z,2
2022-09-06T07:39:46.000Z,1.6
2022-09-06T07:40:55.000Z,2
2022-09-06T07:42:05.000Z,2
2022-09-06T07:43:15.000Z,1.8
2022-09-06T07:44:25.000Z,1.8
2022-09-06T07:45:35.000Z,1.8
2022-09-06T07:46:45.000Z,1.8
2022-09-06T07:47:55.000Z,1.5
2022-09-06T07:49:05.000Z,2.1
2022-09-06T07:50:14.000Z,1.9
2022-09-06T07:51:23.000Z,1.7
2022-09-06T07:52:32.000Z,1.5
2022-09-06T07:53:42.000Z,1.9
2022-09-06T07:54:51.000Z,1.8
2022-09-06T07:56:00.000Z,1.6
2022-09-06T07:57:10.000Z,2
2022-09-06T07:58:21.000Z,1.7
2022-09-06T07:59:31.000Z,1.7
2022-09-06T08:00:41.000Z,1.7
2022-09-06T08:01:51.000Z,1.6
2022-09-06T08:03:01.000Z,1.7
2022-09-06T08:04:11.000Z,1.9
2022-09-06T08:05:21.000Z,2
2022-09-06T08:06:31.000Z,1.7
2022-09-06T08:07:41.000Z,1.9
2022-09-06T08:08:52.000Z,1.4
2022-09-06T08:10:02.000Z,1.7
2022-09-06T08:11:11.000Z,1.8
2022-09-06T08:12:21.000Z,1.5
2022-09-06T08:13:31.000Z,2
2022-09-06T08:14:41.000Z,2
2022-09-06T08:15:51.000Z,1.8
2022-09-06T08:17:01.000Z,1.8
2022-09-06T08:18:12.000Z,1.8
2022-09-06T08:19:21.000Z,1.5
2022-09-06T08:20:30.000Z,1.8
2022-09-06T08:21:40.000Z,1.8
2022-09-06T08:22:49.000Z,1.9
2022-09-06T08:23:58.000Z,1.4
2022-09-06T08:25:08.000Z,1.7
2022-09-06T08:26:18.000Z,2
2022-09-06T08:27:29.000Z,1.7
2022-09-06T08:28:39.000Z,1.7
2022-09-06T08:29:49.000Z,1.6
2022-09-06T08:30:59.000Z,1.8
2022-09-06T08:32:09.000Z,1.6
2022-09-06T08:33:19.000Z,1.4
2022-09-06T08:34:29.000Z,1.9
2022-09-06T08:35:39.000Z,1.8
2022-09-06T08:36:49.000Z,1.7
2022-09-06T08:38:00.000Z,2
2022-09-06T08:39:09.000Z,1.3
2022-09-06T08:40:19.000Z,1.7
2022-09-06T08:41:28.000Z,1.8
2022-09-06T08:42:38.000Z,1.4
2022-09-06T08:43:48.000Z,1.8
2022-09-06T08:44:58.000Z,1.6
2022-09-06T08:46:08.000Z,1.8
2022-09-06T08:47:18.000Z,1.8
2022-09-06T08:48:27.000Z,1.7
2022-09-06T08:49:37.000Z,2.1
2022-09-06T08:50:46.000Z,1.7
2022-09-06T08:51:55.000Z,1.7
2022-09-06T08:53:05.000Z,1.8
2022-09-06T08:54:15.000Z,1.6
2022-09-06T08:55:25.000Z,1.8
2022-09-06T08:56:36.000Z,1.8
2022-09-06T08:57:46.000Z,1.7
2022-09-06T08:58:56.000Z,2
2022-09-06T09:00:06.000Z,1.6
2022-09-06T09:01:16.000Z,1.6
2022-09-06T09:02:26.000Z,1.4
2022-09-06T09:03:36.000Z,1.6
2022-09-06T09:04:46.000Z,1.4
2022-09-06T09:05:57.000Z,1.6
2022-09-06T09:07:06.000Z,1.7
2022-09-06T09:08:16.000Z,1.5
2022-09-06T09:09:26.000Z,1.7
2022-09-06T09:10:36.000Z,1.5
2022-09-06T09:11:46.000Z,1.4
2022-09-06T09:12:56.000Z,1.6
2022-09-06T09:14:06.000Z,1.6
2022-09-06T09:15:15.000Z,1.6
2022-09-06T09:16:25.000Z,1.6
2022-09-06T09:17:35.000Z,1.3
2022-09-06T09:18:44.000Z,1.4
2022-09-06T09:19:53.000Z,1.4
2022-09-06T09:21:03.000Z,1.6
2022-09-06T09:22:13.000Z,1.5
2022-09-06T09:23:23.000Z,1.7
2022-09-06T09:24:33.000Z,1.5
2022-09-06T09:25:44.000Z,1.6
2022-09-06T09:26:54.000Z,1.4
2022-09-06T09:28:04.000Z,1.6
2022-09-06T09:29:14.000Z,1.4
2022-09-06T09:30:24.000Z,1.7
2022-09-06T09:31:34.000Z,1.8
2022-09-06T09:32:44.000Z,1.6
2022-09-06T09:33:54.000Z,1.3
2022-09-06T09:35:04.000Z,1.4
2022-09-06T09:36:14.000Z,1.3
2022-09-06T09:37:24.000Z,1.6
2022-09-06T09:38:34.000Z,1.3
2022-09-06T09:39:44.000Z,1.4
2022-09-06T09:40:54.000Z,1.3
2022-09-06T09:42:04.000Z,1.3
2022-09-06T09:43:13.000Z,1.2
2022-09-06T09:44:22.000Z,1.7
2022-09-06T09:46:43.000Z,1.3
2022-09-06T09:47:52.000Z,1.6
2022-09-06T09:49:01.000Z,1.6
2022-09-06T09:50:11.000Z,1.3
2022-09-06T09:51:21.000Z,1.3
2022-09-06T09:52:31.000Z,1.4
2022-09-06T09:53:41.000Z,1.4
2022-09-06T09:54:52.000Z,1.6
2022-09-06T09:56:02.000Z,1.2
2022-09-06T09:57:12.000Z,1.5
2022-09-06T09:58:22.000Z,1.4
2022-09-06T09:59:32.000Z,1.2
2022-09-06T10:00:42.000Z,1.3
2022-09-06T10:01:52.000Z,1.3
2022-09-06T10:03:02.000Z,1.3
2022-09-06T10:04:12.000Z,1.2
2022-09-06T10:05:22.000Z,1.5
2022-09-06T10:06:32.000Z,1.4
2022-09-06T10:07:42.000Z,1.2
2022-09-06T10:08:52.000Z,1.2
2022-09-06T10:10:02.000Z,1.3
2022-09-06T10:11:12.000Z,1.6
2022-09-06T10:12:21.000Z,1.3
2022-09-06T10:13:30.000Z,1.2
2022-09-06T10:14:40.000Z,1.4
2022-09-06T10:15:49.000Z,1.8
2022-09-06T10:16:59.000Z,1
2022-09-06T10:18:09.000Z,1.3
2022-09-06T10:19:19.000Z,1.4
2022-09-06T10:20:29.000Z,1.3
2022-09-06T10:21:39.000Z,1.6
2022-09-06T10:22:49.000Z,1.4
2022-09-06T10:24:00.000Z,1.1
2022-09-06T10:25:10.000Z,1.2
2022-09-06T10:26:20.000Z,1.1
2022-09-06T10:27:30.000Z,1.1
2022-09-06T10:28:40.000Z,1.5
2022-09-06T10:29:50.000Z,1.1
2022-09-06T10:30:59.000Z,1.1
2022-09-06T10:32:09.000Z,1.3
2022-09-06T10:33:20.000Z,1.2
2022-09-06T10:34:30.000Z,0.9
2022-09-06T10:35:40.000Z,1.4
2022-09-06T10:36:50.000Z,1.1
2022-09-06T10:38:00.000Z,1
2022-09-06T10:39:09.000Z,1
2022-09-06T10:40:18.000Z,1.3
2022-09-06T10:41:28.000Z,1.2
2022-09-06T10:42:38.000Z,0.9
2022-09-06T10:43:48.000Z,1.1
2022-09-06T10:44:57.000Z,1.1
2022-09-06T10:46:07.000Z,1
2022-09-06T10:47:17.000Z,1.1
2022-09-06T10:48:27.000Z,1.2
2022-09-06T10:49:37.000Z,1
2022-09-06T10:50:47.000Z,0.9
2022-09-06T10:51:57.000Z,0.8
2022-09-06T10:53:08.000Z,0.8
2022-09-06T10:54:18.000Z,0.8
2022-09-06T10:55:28.000Z,1.4
2022-09-06T10:56:38.000Z,0.9
2022-09-06T10:57:48.000Z,0.9
2022-09-06T10:58:58.000Z,1.2
2022-09-06T11:00:07.000Z,1
2022-09-06T11:01:17.000Z,1
2022-09-06T11:02:28.000Z,2.1
2022-09-06T11:03:38.000Z,1.8
2022-09-06T11:04:48.000Z,1.3
2022-09-06T11:05:58.000Z,1.5
2022-09-06T11:07:08.000Z,1.9
2022-09-06T11:08:17.000Z,1.1
2022-09-06T11:09:26.000Z,1.8
2022-09-06T11:10:35.000Z,1.2
2022-09-06T11:11:45.000Z,1.4
2022-09-06T11:12:55.000Z,1.3
2022-09-06T11:14:05.000Z,2.4
2022-09-06T11:15:15.000Z,1.1
2022-09-06T11:16:25.000Z,1.6
2022-09-06T11:17:35.000Z,1.6
2022-09-06T11:19:55.000Z,1.3
2022-09-06T11:21:05.000Z,1.1
2022-09-06T11:22:16.000Z,1.5
2022-09-06T11:23:26.000Z,1.3
2022-09-06T11:24:36.000Z,1
2022-09-06T11:25:46.000Z,1.7
2022-09-06T11:26:55.000Z,1.7
2022-09-06T11:28:05.000Z,1.5
2022-09-06T11:29:15.000Z,1.4
2022-09-06T11:30:25.000Z,1.3
2022-09-06T11:31:36.000Z,1
2022-09-06T11:32:46.000Z,1.4
2022-09-06T11:33:56.000Z,1.2
2022-09-06T11:35:06.000Z,1.1
2022-09-06T11:36:15.000Z,1.4
2022-09-06T11:37:24.000Z,1.1
2022-09-06T11:38:34.000Z,1.1
2022-09-06T11:39:44.000Z,1.5
2022-09-06T11:40:55.000Z,1.3
2022-09-06T11:42:05.000Z,1.2
2022-09-06T11:43:15.000Z,1
2022-09-06T11:44:25.000Z,2.2
2022-09-06T11:45:34.000Z,0.9
2022-09-06T11:46:43.000Z,1.4
2022-09-06T11:47:53.000Z,1.1
2022-09-06T11:49:03.000Z,1.3
2022-09-06T11:50:14.000Z,1
2022-09-06T11:51:24.000Z,0.9
2022-09-06T11:52:34.000Z,1
2022-09-06T11:53:44.000Z,0.9
2022-09-06T11:54:54.000Z,1.2
2022-09-06T11:56:04.000Z,1.4
2022-09-06T11:57:14.000Z,1.5
2022-09-06T11:58:24.000Z,1.1
2022-09-06T11:59:34.000Z,0.9
2022-09-06T12:00:45.000Z,1.2
2022-09-06T12:01:54.000Z,1.4
2022-09-06T12:03:04.000Z,1
2022-09-06T12:04:14.000Z,1.3
2022-09-06T12:05:24.000Z,1.1
2022-09-06T12:06:34.000Z,1
2022-09-06T12:07:44.000Z,1.5
2022-09-06T12:08:54.000Z,1.4
2022-09-06T12:10:04.000Z,1.8
2022-09-06T12:11:13.000Z,1.1
2022-09-06T12:12:23.000Z,1.3
2022-09-06T12:13:32.000Z,1.1
2022-09-06T12:14:41.000Z,1.5
2022-09-06T12:15:51.000Z,1.3
2022-09-06T12:17:01.000Z,1.3
2022-09-06T12:18:11.000Z,1.7
2022-09-06T12:19:22.000Z,1.2
2022-09-06T12:20:32.000Z,1.3
2022-09-06T12:21:42.000Z,1
2022-09-06T12:22:52.000Z,1.1
2022-09-06T12:24:02.000Z,2.3
2022-09-06T12:25:12.000Z,0.9
2022-09-06T12:26:22.000Z,1.2
2022-09-06T12:27:32.000Z,1.3
2022-09-06T12:28:42.000Z,1
2022-09-06T12:29:52.000Z,1
2022-09-06T12:31:02.000Z,1.1
2022-09-06T12:32:12.000Z,1.3
2022-09-06T12:33:22.000Z,1.2
2022-09-06T12:34:32.000Z,0.8
2022-09-06T12:35:41.000Z,0.9
2022-09-06T12:36:51.000Z,1.1
2022-09-06T12:38:00.000Z,1
2022-09-06T12:39:10.000Z,0.7
2022-09-06T12:40:20.000Z,0.7
2022-09-06T12:41:30.000Z,0.6
2022-09-06T12:42:40.000Z,1.3
2022-09-06T12:43:49.000Z,1.1
2022-09-06T12:44:58.000Z,0.9
2022-09-06T12:46:08.000Z,1.3
2022-09-06T12:47:18.000Z,1.1
2022-09-06T12:48:29.000Z,1
2022-09-06T12:49:39.000Z,0.9
2022-09-06T12:50:49.000Z,1
2022-09-06T12:51:59.000Z,1.3
2022-09-06T12:53:09.000Z,0.9
2022-09-06T12:54:19.000Z,1
2022-09-06T12:55:29.000Z,1
2022-09-06T12:56:39.000Z,1.2
2022-09-06T12:57:50.000Z,0.8
2022-09-06T12:59:00.000Z,1
2022-09-06T13:00:09.000Z,1.1
2022-09-06T13:01:19.000Z,2
2022-09-06T13:02:29.000Z,1.1
2022-09-06T13:03:39.000Z,1.5
2022-09-06T13:04:49.000Z,1.2
2022-09-06T13:05:59.000Z,1.1
2022-09-06T13:07:09.000Z,1
2022-09-06T13:08:19.000Z,1.4
2022-09-06T13:09:28.000Z,1.4
2022-09-06T13:10:37.000Z,1.2
2022-09-06T13:11:46.000Z,1.2
2022-09-06T13:12:56.000Z,1.2
2022-09-06T13:14:06.000Z,0.8
2022-09-06T13:15:16.000Z,1
2022-09-06T13:16:26.000Z,1.3
2022-09-06T13:17:37.000Z,1.2
2022-09-06T13:18:47.000Z,1
2022-09-06T13:19:57.000Z,1
2022-09-06T13:21:07.000Z,1
2022-09-06T13:22:17.000Z,1.2
2022-09-06T13:23:27.000Z,0.9
2022-09-06T13:24:37.000Z,1.8
2022-09-06T13:25:47.000Z,1.4
2022-09-06T13:26:57.000Z,1
2022-09-06T13:28:07.000Z,0.8
2022-09-06T13:29:17.000Z,0.8
2022-09-06T13:30:27.000Z,1
2022-09-06T13:31:37.000Z,1.2
2022-09-06T13:32:47.000Z,0.8
2022-09-06T13:33:57.000Z,0.8
2022-09-06T13:35:06.000Z,0.7
2022-09-06T13:36:15.000Z,0.7
2022-09-06T13:37:25.000Z,0.8
2022-09-06T13:38:34.000Z,1.3
2022-09-06T13:39:44.000Z,0.9
2022-09-06T13:40:54.000Z,0.6
2022-09-06T13:42:04.000Z,0.7
2022-09-06T13:43:14.000Z,0.9
2022-09-06T13:44:24.000Z,0.9
2022-09-06T13:45:34.000Z,0.6
2022-09-06T13:46:45.000Z,1.4
2022-09-06T13:47:55.000Z,1.3
2022-09-06T13:49:05.000Z,0.6
2022-09-06T13:50:15.000Z,0.9
2022-09-06T13:51:25.000Z,0.7
2022-09-06T13:52:35.000Z,0.9
2022-09-06T13:53:44.784Z,1
2022-09-06T13:54:54.000Z,0.5
2022-09-06T13:56:05.000Z,0.5
2022-09-06T13:57:15.000Z,0.6
2022-09-06T13:58:25.000Z,0.9
2022-09-06T13:59:35.000Z,0.7
2022-09-06T14:00:45.000Z,0.7
2022-09-06T14:01:54.000Z,0.6
2022-09-06T14:03:03.000Z,0.5
2022-09-06T14:04:13.000Z,0.7
2022-09-06T14:05:23.000Z,0.9
2022-09-06T14:06:32.000Z,0.6
2022-09-06T14:07:42.000Z,0.5
2022-09-06T14:08:52.000Z,0.7
2022-09-06T14:10:02.000Z,0.6
2022-09-06T14:11:12.000Z,0.7
2022-09-06T14:12:22.000Z,0.6
2022-09-06T14:13:32.000Z,0.7
2022-09-06T14:14:42.000Z,0.8
2022-09-06T14:15:53.000Z,0.6
2022-09-06T14:17:03.000Z,0.6
2022-09-06T14:18:13.000Z,0.8
2022-09-06T14:19:23.000Z,0.7
2022-09-06T14:20:33.000Z,0.6
2022-09-06T14:21:42.000Z,0.6
2022-09-06T14:22:52.000Z,0.6
2022-09-06T14:24:02.000Z,0.6
2022-09-06T14:25:13.000Z,0.6
2022-09-06T14:26:23.000Z,0.4
2022-09-06T14:27:33.000Z,0.8
2022-09-06T14:29:53.000Z,0.5
2022-09-06T14:31:02.000Z,0.5
2022-09-06T14:32:11.000Z,0.7
2022-09-06T14:33:20.000Z,0.6
2022-09-06T14:34:30.000Z,0.4
2022-09-06T14:35:40.000Z,0.6
2022-09-06T14:36:50.000Z,0.6
2022-09-06T14:38:00.000Z,0.6
2022-09-06T14:39:10.000Z,0.6
2022-09-06T14:41:30.000Z,0.7
2022-09-06T14:42:40.000Z,0.5
2022-09-06T14:43:50.000Z,0.4
2022-09-06T14:45:01.000Z,0.5
2022-09-06T14:46:11.000Z,0.6
2022-09-06T14:47:21.000Z,0.5
2022-09-06T14:48:31.000Z,0.7
2022-09-06T14:49:40.000Z,0.6
2022-09-06T14:50:50.000Z,0.6
2022-09-06T14:52:00.000Z,0.4
2022-09-06T14:53:10.000Z,0.8
2022-09-06T14:54:21.000Z,0.6
2022-09-06T14:55:31.000Z,0.4
2022-09-06T14:56:41.000Z,0.6
2022-09-06T14:57:51.000Z,0.7
2022-09-06T14:59:00.000Z,0.7
2022-09-06T15:00:09.000Z,0.4
2022-09-06T15:01:19.000Z,0.5
2022-09-06T15:02:28.000Z,0.4
2022-09-06T15:03:38.000Z,0.5
2022-09-06T15:04:48.000Z,0.3
2022-09-06T15:05:58.000Z,0.4
2022-09-06T15:07:08.000Z,0.8
2022-09-06T15:08:18.000Z,0.5
2022-09-06T15:09:28.000Z,0.5
2022-09-06T15:10:38.000Z,0.6
2022-09-06T15:11:48.000Z,0.3
2022-09-06T15:12:58.000Z,0.4
2022-09-06T15:14:09.000Z,0.6
2022-09-06T15:15:19.000Z,0.5
2022-09-06T15:16:29.000Z,0.6
2022-09-06T15:17:39.000Z,0.4
2022-09-06T15:18:48.000Z,0.6
2022-09-06T15:19:58.000Z,0.5
2022-09-06T15:21:08.000Z,0.3
2022-09-06T15:22:18.000Z,0.5
2022-09-06T15:23:29.000Z,0.4
2022-09-06T15:24:39.000Z,0.6
2022-09-06T15:25:49.000Z,0.9
2022-09-06T15:26:58.000Z,1
2022-09-06T15:28:07.000Z,0.4
2022-09-06T15:29:16.000Z,1
2022-09-06T15:30:25.000Z,0.8
2022-09-06T15:31:35.000Z,0.4
2022-09-06T15:32:46.000Z,0.5
2022-09-06T15:33:56.000Z,0.6
2022-09-06T15:35:06.000Z,1
2022-09-06T15:36:16.000Z,0.5
2022-09-06T15:37:26.000Z,0.4
2022-09-06T15:38:36.000Z,0.4
2022-09-06T15:39:46.000Z,0.6
2022-09-06T15:40:56.000Z,0.5
2022-09-06T15:42:06.000Z,0.5
2022-09-06T15:43:17.000Z,0.5
2022-09-06T15:44:27.000Z,0.5
2022-09-06T15:45:36.000Z,0.3
2022-09-06T15:46:46.000Z,0.5
2022-09-06T15:47:56.000Z,0.6
2022-09-06T15:49:06.000Z,0.5
2022-09-06T15:50:16.000Z,0.3
2022-09-06T15:51:26.000Z,0.5
2022-09-06T15:52:37.000Z,0.7
2022-09-06T15:53:46.000Z,0.2
2022-09-06T15:54:55.000Z,0.6
2022-09-06T15:56:04.000Z,0.5
2022-09-06T15:57:13.000Z,0.4
2022-09-06T15:58:23.000Z,0.7
2022-09-06T15:59:33.000Z,0.3
2022-09-06T16:00:43.000Z,0.5
2022-09-06T16:01:54.000Z,0.5
2022-09-06T16:03:04.000Z,0.4
2022-09-06T16:04:14.000Z,0.4
2022-09-06T16:05:24.000Z,0.5
2022-09-06T16:06:34.000Z,0.3
2022-09-06T16:07:44.000Z,0.7
2022-09-06T16:08:54.000Z,0.5
2022-09-06T16:10:04.000Z,0.4
2022-09-06T16:11:14.000Z,0.4
2022-09-06T16:12:24.000Z,0.5
2022-09-06T16:13:34.000Z,0.3
2022-09-06T16:14:44.000Z,0.4
2022-09-06T16:15:54.000Z,0.4
2022-09-06T16:17:04.000Z,0.5
2022-09-06T16:18:14.000Z,0.3
2022-09-06T16:19:24.000Z,0.5
2022-09-06T16:20:33.000Z,0.4
2022-09-06T16:21:43.000Z,0.5
2022-09-06T16:22:53.000Z,0.4
2022-09-06T16:24:03.000Z,0.4
2022-09-06T16:25:12.000Z,0.5
2022-09-06T16:26:21.000Z,0.4
2022-09-06T16:27:31.000Z,0.3
2022-09-06T16:28:41.000Z,0.4
2022-09-06T16:29:50.000Z,0.4